sensor_id;sensor_type;location;lat;lon;timestamp;P1;durP1;ratioP1;P2;durP2;ratioP2
19867;SDS011;10096;51.112;6.776;2023-04-09T00:01:23;35.53;;;30.07;;
19867;SDS011;10096;51.112;6.776;2023-04-09T00:03:52;37.13;;;30.37;;
19867;SDS011;10096;51.112;6.776;2023-04-09T00:06:19;38.47;;;29.67;;
19867;SDS011;10096;51.112;6.776;2023-04-09T00:08:46;35.93;;;30.63;;
19867;SDS011;10096;51.112;6.776;2023-04-09T00:11:13;32.90;;;29.33;;
19867;SDS011;10096;51.112;6.776;2023-04-09T00:13:39;33.23;;;28.90;;
19867;SDS011;10096;51.112;6.776;2023-04-09T00:16:07;36.80;;;30.83;;
19867;SDS011;10096;51.112;6.776;2023-04-09T00:18:34;33.47;;;29.07;;
19867;SDS011;10096;51.112;6.776;2023-04-09T00:21:02;37.67;;;30.80;;
19867;SDS011;10096;51.112;6.776;2023-04-09T00:23:32;37.60;;;30.60;;
19867;SDS011;10096;51.112;6.776;2023-04-09T00:25:59;36.93;;;31.20;;
19867;SDS011;10096;51.112;6.776;2023-04-09T00:28:26;35.57;;;28.43;;
19867;SDS011;10096;51.112;6.776;2023-04-09T00:30:53;32.40;;;28.47;;
19867;SDS011;10096;51.112;6.776;2023-04-09T00:33:21;32.23;;;27.73;;
19867;SDS011;10096;51.112;6.776;2023-04-09T00:35:50;33.10;;;26.93;;
19867;SDS011;10096;51.112;6.776;2023-04-09T00:38:18;32.90;;;26.37;;
19867;SDS011;10096;51.112;6.776;2023-04-09T00:40:47;31.77;;;25.43;;
19867;SDS011;10096;51.112;6.776;2023-04-09T00:43:14;30.63;;;25.83;;
19867;SDS011;10096;51.112;6.776;2023-04-09T00:45:42;32.23;;;26.90;;
19867;SDS011;10096;51.112;6.776;2023-04-09T00:48:09;32.70;;;26.20;;
19867;SDS011;10096;51.112;6.776;2023-04-09T00:50:36;32.50;;;26.73;;
19867;SDS011;10096;51.112;6.776;2023-04-09T00:53:03;31.27;;;26.80;;
19867;SDS011;10096;51.112;6.776;2023-04-09T00:55:32;33.23;;;26.13;;
19867;SDS011;10096;51.112;6.776;2023-04-09T00:58:01;34.97;;;27.57;;
19867;SDS011;10096;51.112;6.776;2023-04-09T01:00:28;33.10;;;27.37;;
19867;SDS011;10096;51.112;6.776;2023-04-09T01:02:55;33.97;;;28.03;;
19867;SDS011;10096;51.112;6.776;2023-04-09T01:05:24;34.37;;;27.20;;
19867;SDS011;10096;51.112;6.776;2023-04-09T01:07:58;35.00;;;28.40;;
19867;SDS011;10096;51.112;6.776;2023-04-09T01:10:33;34.57;;;28.33;;
19867;SDS011;10096;51.112;6.776;2023-04-09T01:13:06;33.73;;;27.57;;
19867;SDS011;10096;51.112;6.776;2023-04-09T01:15:38;34.60;;;27.60;;
19867;SDS011;10096;51.112;6.776;2023-04-09T01:18:10;34.77;;;28.07;;
19867;SDS011;10096;51.112;6.776;2023-04-09T01:20:45;35.93;;;29.03;;
19867;SDS011;10096;51.112;6.776;2023-04-09T01:23:17;38.67;;;29.63;;
19867;SDS011;10096;51.112;6.776;2023-04-09T01:26:00;33.63;;;29.03;;
19867;SDS011;10096;51.112;6.776;2023-04-09T01:28:34;35.43;;;29.37;;
19867;SDS011;10096;51.112;6.776;2023-04-09T01:31:08;33.43;;;29.07;;
19867;SDS011;10096;51.112;6.776;2023-04-09T01:33:38;36.43;;;29.93;;
19867;SDS011;10096;51.112;6.776;2023-04-09T01:36:07;36.93;;;30.40;;
19867;SDS011;10096;51.112;6.776;2023-04-09T01:38:35;34.93;;;29.63;;
19867;SDS011;10096;51.112;6.776;2023-04-09T01:41:05;37.83;;;29.70;;
19867;SDS011;10096;51.112;6.776;2023-04-09T01:43:36;35.77;;;30.70;;
19867;SDS011;10096;51.112;6.776;2023-04-09T01:46:03;34.17;;;29.43;;
19867;SDS011;10096;51.112;6.776;2023-04-09T01:48:30;33.57;;;28.87;;
19867;SDS011;10096;51.112;6.776;2023-04-09T01:50:59;36.00;;;30.13;;
19867;SDS011;10096;51.112;6.776;2023-04-09T01:53:26;35.17;;;28.60;;
19867;SDS011;10096;51.112;6.776;2023-04-09T01:55:55;34.87;;;29.07;;
19867;SDS011;10096;51.112;6.776;2023-04-09T01:58:22;31.60;;;27.67;;
19867;SDS011;10096;51.112;6.776;2023-04-09T02:00:52;32.83;;;27.90;;
19867;SDS011;10096;51.112;6.776;2023-04-09T02:03:25;37.30;;;28.23;;
19867;SDS011;10096;51.112;6.776;2023-04-09T02:05:58;36.07;;;29.63;;
19867;SDS011;10096;51.112;6.776;2023-04-09T02:08:30;32.23;;;27.70;;
19867;SDS011;10096;51.112;6.776;2023-04-09T02:11:00;32.10;;;27.80;;
19867;SDS011;10096;51.112;6.776;2023-04-09T02:13:35;31.13;;;26.57;;
19867;SDS011;10096;51.112;6.776;2023-04-09T02:16:06;30.40;;;26.23;;
19867;SDS011;10096;51.112;6.776;2023-04-09T02:18:34;32.87;;;27.10;;
19867;SDS011;10096;51.112;6.776;2023-04-09T02:21:02;30.13;;;26.93;;
19867;SDS011;10096;51.112;6.776;2023-04-09T02:23:31;34.53;;;28.70;;
19867;SDS011;10096;51.112;6.776;2023-04-09T02:25:59;33.90;;;27.27;;
19867;SDS011;10096;51.112;6.776;2023-04-09T02:28:26;31.30;;;27.73;;
19867;SDS011;10096;51.112;6.776;2023-04-09T02:30:53;30.90;;;26.53;;
19867;SDS011;10096;51.112;6.776;2023-04-09T02:33:21;31.90;;;28.40;;
19867;SDS011;10096;51.112;6.776;2023-04-09T02:35:48;33.30;;;28.60;;
19867;SDS011;10096;51.112;6.776;2023-04-09T02:38:15;35.30;;;27.00;;
19867;SDS011;10096;51.112;6.776;2023-04-09T02:40:42;31.93;;;27.20;;
19867;SDS011;10096;51.112;6.776;2023-04-09T02:43:11;32.00;;;27.77;;
19867;SDS011;10096;51.112;6.776;2023-04-09T02:45:38;35.73;;;28.40;;
19867;SDS011;10096;51.112;6.776;2023-04-09T02:48:06;36.07;;;29.27;;
19867;SDS011;10096;51.112;6.776;2023-04-09T02:50:34;31.50;;;27.03;;
19867;SDS011;10096;51.112;6.776;2023-04-09T02:53:01;34.93;;;29.13;;
19867;SDS011;10096;51.112;6.776;2023-04-09T02:55:28;33.33;;;28.17;;
19867;SDS011;10096;51.112;6.776;2023-04-09T02:57:55;33.40;;;28.30;;
19867;SDS011;10096;51.112;6.776;2023-04-09T03:00:22;35.30;;;29.23;;
19867;SDS011;10096;51.112;6.776;2023-04-09T03:02:49;36.47;;;29.37;;
19867;SDS011;10096;51.112;6.776;2023-04-09T03:05:16;33.40;;;28.93;;
19867;SDS011;10096;51.112;6.776;2023-04-09T03:07:44;31.50;;;28.10;;
19867;SDS011;10096;51.112;6.776;2023-04-09T03:10:11;34.33;;;28.50;;
19867;SDS011;10096;51.112;6.776;2023-04-09T03:12:38;35.33;;;29.13;;
19867;SDS011;10096;51.112;6.776;2023-04-09T03:15:08;34.43;;;27.50;;
19867;SDS011;10096;51.112;6.776;2023-04-09T03:17:36;31.87;;;27.43;;
19867;SDS011;10096;51.112;6.776;2023-04-09T03:20:04;35.20;;;27.03;;
19867;SDS011;10096;51.112;6.776;2023-04-09T03:22:35;35.83;;;29.20;;
19867;SDS011;10096;51.112;6.776;2023-04-09T03:25:04;34.07;;;28.47;;
19867;SDS011;10096;51.112;6.776;2023-04-09T03:27:32;34.67;;;27.63;;
19867;SDS011;10096;51.112;6.776;2023-04-09T03:29:59;34.80;;;27.87;;
19867;SDS011;10096;51.112;6.776;2023-04-09T03:32:25;34.00;;;28.63;;
19867;SDS011;10096;51.112;6.776;2023-04-09T03:34:53;34.87;;;28.13;;
19867;SDS011;10096;51.112;6.776;2023-04-09T03:37:20;37.63;;;28.53;;
19867;SDS011;10096;51.112;6.776;2023-04-09T03:39:47;34.27;;;28.30;;
19867;SDS011;10096;51.112;6.776;2023-04-09T03:42:16;32.97;;;26.33;;
19867;SDS011;10096;51.112;6.776;2023-04-09T03:44:43;31.23;;;25.43;;
19867;SDS011;10096;51.112;6.776;2023-04-09T03:47:11;31.80;;;25.53;;
19867;SDS011;10096;51.112;6.776;2023-04-09T03:49:38;29.63;;;24.67;;
19867;SDS011;10096;51.112;6.776;2023-04-09T03:52:05;32.53;;;27.00;;
19867;SDS011;10096;51.112;6.776;2023-04-09T03:54:31;30.73;;;25.00;;
19867;SDS011;10096;51.112;6.776;2023-04-09T03:56:59;34.57;;;26.40;;
19867;SDS011;10096;51.112;6.776;2023-04-09T03:59:29;33.97;;;26.60;;
19867;SDS011;10096;51.112;6.776;2023-04-09T04:01:55;31.40;;;26.70;;
19867;SDS011;10096;51.112;6.776;2023-04-09T04:04:22;35.03;;;27.63;;
19867;SDS011;10096;51.112;6.776;2023-04-09T04:06:49;32.83;;;26.30;;
19867;SDS011;10096;51.112;6.776;2023-04-09T04:09:16;30.60;;;26.27;;
19867;SDS011;10096;51.112;6.776;2023-04-09T04:11:43;32.90;;;25.67;;
19867;SDS011;10096;51.112;6.776;2023-04-09T04:14:10;31.17;;;26.43;;
19867;SDS011;10096;51.112;6.776;2023-04-09T04:16:40;33.63;;;26.97;;
19867;SDS011;10096;51.112;6.776;2023-04-09T04:19:06;31.63;;;26.33;;
19867;SDS011;10096;51.112;6.776;2023-04-09T04:21:34;31.87;;;26.77;;
19867;SDS011;10096;51.112;6.776;2023-04-09T04:24:00;34.10;;;27.30;;
19867;SDS011;10096;51.112;6.776;2023-04-09T04:26:27;33.03;;;27.27;;
19867;SDS011;10096;51.112;6.776;2023-04-09T04:28:54;30.90;;;26.03;;
19867;SDS011;10096;51.112;6.776;2023-04-09T04:31:21;31.73;;;25.97;;
19867;SDS011;10096;51.112;6.776;2023-04-09T04:33:49;31.80;;;25.50;;
19867;SDS011;10096;51.112;6.776;2023-04-09T04:36:16;33.40;;;26.73;;
19867;SDS011;10096;51.112;6.776;2023-04-09T04:38:43;32.03;;;25.50;;
19867;SDS011;10096;51.112;6.776;2023-04-09T04:41:10;31.70;;;27.13;;
19867;SDS011;10096;51.112;6.776;2023-04-09T04:43:37;31.40;;;25.17;;
19867;SDS011;10096;51.112;6.776;2023-04-09T04:46:05;27.67;;;24.67;;
19867;SDS011;10096;51.112;6.776;2023-04-09T04:48:32;32.13;;;25.70;;
19867;SDS011;10096;51.112;6.776;2023-04-09T04:51:00;31.40;;;25.57;;
19867;SDS011;10096;51.112;6.776;2023-04-09T04:53:27;29.43;;;23.90;;
19867;SDS011;10096;51.112;6.776;2023-04-09T04:55:54;33.77;;;24.60;;
19867;SDS011;10096;51.112;6.776;2023-04-09T04:58:21;31.63;;;25.20;;
19867;SDS011;10096;51.112;6.776;2023-04-09T05:00:48;31.47;;;24.90;;
19867;SDS011;10096;51.112;6.776;2023-04-09T05:03:15;30.07;;;23.97;;
19867;SDS011;10096;51.112;6.776;2023-04-09T05:05:42;31.07;;;24.80;;
19867;SDS011;10096;51.112;6.776;2023-04-09T05:08:11;28.70;;;24.07;;
19867;SDS011;10096;51.112;6.776;2023-04-09T05:10:39;26.80;;;23.17;;
19867;SDS011;10096;51.112;6.776;2023-04-09T05:13:06;31.00;;;24.47;;
19867;SDS011;10096;51.112;6.776;2023-04-09T05:15:36;30.20;;;24.10;;
19867;SDS011;10096;51.112;6.776;2023-04-09T05:18:04;27.00;;;22.43;;
19867;SDS011;10096;51.112;6.776;2023-04-09T05:20:32;28.80;;;22.93;;
19867;SDS011;10096;51.112;6.776;2023-04-09T05:22:59;26.37;;;22.63;;
19867;SDS011;10096;51.112;6.776;2023-04-09T05:25:27;24.67;;;21.97;;
19867;SDS011;10096;51.112;6.776;2023-04-09T05:27:55;26.27;;;21.47;;
19867;SDS011;10096;51.112;6.776;2023-04-09T05:30:21;22.53;;;19.83;;
19867;SDS011;10096;51.112;6.776;2023-04-09T05:32:48;25.60;;;21.65;;
19867;SDS011;10096;51.112;6.776;2023-04-09T05:35:15;24.75;;;21.67;;
19867;SDS011;10096;51.112;6.776;2023-04-09T05:37:42;26.30;;;22.20;;
19867;SDS011;10096;51.112;6.776;2023-04-09T05:40:09;29.52;;;24.27;;
19867;SDS011;10096;51.112;6.776;2023-04-09T05:42:38;23.92;;;20.85;;
19867;SDS011;10096;51.112;6.776;2023-04-09T05:45:06;21.00;;;18.65;;
19867;SDS011;10096;51.112;6.776;2023-04-09T05:47:34;22.80;;;18.92;;
19867;SDS011;10096;51.112;6.776;2023-04-09T05:50:01;24.73;;;21.77;;
19867;SDS011;10096;51.112;6.776;2023-04-09T05:52:28;25.33;;;22.52;;
19867;SDS011;10096;51.112;6.776;2023-04-09T05:54:55;23.83;;;21.23;;
19867;SDS011;10096;51.112;6.776;2023-04-09T05:57:22;22.40;;;19.75;;
19867;SDS011;10096;51.112;6.776;2023-04-09T05:59:50;19.67;;;17.58;;
19867;SDS011;10096;51.112;6.776;2023-04-09T06:02:17;20.73;;;18.63;;
19867;SDS011;10096;51.112;6.776;2023-04-09T06:04:43;21.05;;;17.67;;
19867;SDS011;10096;51.112;6.776;2023-04-09T06:07:10;19.58;;;17.45;;
19867;SDS011;10096;51.112;6.776;2023-04-09T06:09:37;21.48;;;19.40;;
19867;SDS011;10096;51.112;6.776;2023-04-09T06:12:04;20.10;;;18.10;;
19867;SDS011;10096;51.112;6.776;2023-04-09T06:14:31;21.23;;;19.02;;
19867;SDS011;10096;51.112;6.776;2023-04-09T06:16:59;19.20;;;17.40;;
19867;SDS011;10096;51.112;6.776;2023-04-09T06:19:27;20.90;;;18.70;;
19867;SDS011;10096;51.112;6.776;2023-04-09T06:21:54;20.05;;;18.05;;
19867;SDS011;10096;51.112;6.776;2023-04-09T06:24:21;19.98;;;17.88;;
19867;SDS011;10096;51.112;6.776;2023-04-09T06:26:48;18.60;;;16.70;;
19867;SDS011;10096;51.112;6.776;2023-04-09T06:29:15;19.08;;;17.08;;
19867;SDS011;10096;51.112;6.776;2023-04-09T06:31:41;19.40;;;17.50;;
19867;SDS011;10096;51.112;6.776;2023-04-09T06:34:10;17.80;;;16.10;;
19867;SDS011;10096;51.112;6.776;2023-04-09T06:36:37;17.50;;;15.60;;
19867;SDS011;10096;51.112;6.776;2023-04-09T06:39:04;17.30;;;15.57;;
19867;SDS011;10096;51.112;6.776;2023-04-09T06:41:31;17.20;;;14.82;;
19867;SDS011;10096;51.112;6.776;2023-04-09T06:43:58;17.02;;;15.45;;
19867;SDS011;10096;51.112;6.776;2023-04-09T06:46:25;16.40;;;14.75;;
19867;SDS011;10096;51.112;6.776;2023-04-09T06:48:53;17.40;;;15.32;;
19867;SDS011;10096;51.112;6.776;2023-04-09T06:51:21;17.95;;;16.15;;
19867;SDS011;10096;51.112;6.776;2023-04-09T06:53:48;19.20;;;17.40;;
19867;SDS011;10096;51.112;6.776;2023-04-09T06:56:15;16.45;;;14.75;;
19867;SDS011;10096;51.112;6.776;2023-04-09T06:58:42;16.38;;;14.68;;
19867;SDS011;10096;51.112;6.776;2023-04-09T07:01:09;16.98;;;15.38;;
19867;SDS011;10096;51.112;6.776;2023-04-09T07:03:36;16.25;;;14.65;;
19867;SDS011;10096;51.112;6.776;2023-04-09T07:06:03;18.23;;;16.30;;
19867;SDS011;10096;51.112;6.776;2023-04-09T07:08:31;17.50;;;15.63;;
19867;SDS011;10096;51.112;6.776;2023-04-09T07:10:58;16.65;;;14.85;;
19867;SDS011;10096;51.112;6.776;2023-04-09T07:13:26;16.60;;;14.98;;
19867;SDS011;10096;51.112;6.776;2023-04-09T07:15:55;16.65;;;14.95;;
19867;SDS011;10096;51.112;6.776;2023-04-09T07:18:22;16.05;;;14.55;;
19867;SDS011;10096;51.112;6.776;2023-04-09T07:20:50;15.07;;;13.48;;
19867;SDS011;10096;51.112;6.776;2023-04-09T07:23:18;17.05;;;15.30;;
19867;SDS011;10096;51.112;6.776;2023-04-09T07:25:47;18.48;;;16.67;;
19867;SDS011;10096;51.112;6.776;2023-04-09T07:28:14;19.45;;;17.55;;
19867;SDS011;10096;51.112;6.776;2023-04-09T07:30:41;18.20;;;16.40;;
19867;SDS011;10096;51.112;6.776;2023-04-09T07:33:08;13.95;;;12.55;;
19867;SDS011;10096;51.112;6.776;2023-04-09T07:35:35;18.95;;;16.10;;
19867;SDS011;10096;51.112;6.776;2023-04-09T07:38:02;15.05;;;13.50;;
19867;SDS011;10096;51.112;6.776;2023-04-09T07:40:29;15.40;;;13.85;;
19867;SDS011;10096;51.112;6.776;2023-04-09T07:42:58;14.95;;;13.43;;
19867;SDS011;10096;51.112;6.776;2023-04-09T07:45:25;13.55;;;12.15;;
19867;SDS011;10096;51.112;6.776;2023-04-09T07:47:53;15.10;;;13.45;;
19867;SDS011;10096;51.112;6.776;2023-04-09T07:50:20;13.82;;;12.48;;
19867;SDS011;10096;51.112;6.776;2023-04-09T07:52:47;14.25;;;12.82;;
19867;SDS011;10096;51.112;6.776;2023-04-09T07:55:16;14.98;;;13.52;;
19867;SDS011;10096;51.112;6.776;2023-04-09T07:57:44;14.68;;;13.27;;
19867;SDS011;10096;51.112;6.776;2023-04-09T08:00:14;14.43;;;13.02;;
19867;SDS011;10096;51.112;6.776;2023-04-09T08:02:42;13.82;;;12.43;;
19867;SDS011;10096;51.112;6.776;2023-04-09T08:05:10;14.10;;;12.68;;
19867;SDS011;10096;51.112;6.776;2023-04-09T08:07:37;13.90;;;12.40;;
19867;SDS011;10096;51.112;6.776;2023-04-09T08:10:05;11.38;;;10.25;;
19867;SDS011;10096;51.112;6.776;2023-04-09T08:12:37;11.07;;;10.00;;
19867;SDS011;10096;51.112;6.776;2023-04-09T08:15:05;10.57;;;9.57;;
19867;SDS011;10096;51.112;6.776;2023-04-09T08:17:34;10.68;;;9.68;;
19867;SDS011;10096;51.112;6.776;2023-04-09T08:20:01;9.43;;;8.52;;
19867;SDS011;10096;51.112;6.776;2023-04-09T08:22:28;10.75;;;9.68;;
19867;SDS011;10096;51.112;6.776;2023-04-09T08:24:56;11.00;;;9.90;;
19867;SDS011;10096;51.112;6.776;2023-04-09T08:27:23;10.75;;;9.75;;
19867;SDS011;10096;51.112;6.776;2023-04-09T08:29:50;10.25;;;9.25;;
19867;SDS011;10096;51.112;6.776;2023-04-09T08:32:17;10.73;;;9.63;;
19867;SDS011;10096;51.112;6.776;2023-04-09T08:34:46;10.50;;;9.50;;
19867;SDS011;10096;51.112;6.776;2023-04-09T08:37:13;10.10;;;9.20;;
19867;SDS011;10096;51.112;6.776;2023-04-09T08:39:40;11.02;;;9.93;;
19867;SDS011;10096;51.112;6.776;2023-04-09T08:42:08;11.23;;;10.13;;
19867;SDS011;10096;51.112;6.776;2023-04-09T08:44:37;11.07;;;9.98;;
19867;SDS011;10096;51.112;6.776;2023-04-09T08:47:06;9.65;;;8.65;;
19867;SDS011;10096;51.112;6.776;2023-04-09T08:49:35;10.30;;;9.30;;
19867;SDS011;10096;51.112;6.776;2023-04-09T08:52:05;9.65;;;8.45;;
19867;SDS011;10096;51.112;6.776;2023-04-09T08:54:32;10.30;;;8.98;;
19867;SDS011;10096;51.112;6.776;2023-04-09T08:57:03;10.32;;;9.02;;
19867;SDS011;10096;51.112;6.776;2023-04-09T08:59:31;9.38;;;8.25;;
19867;SDS011;10096;51.112;6.776;2023-04-09T09:02:07;9.45;;;8.45;;
19867;SDS011;10096;51.112;6.776;2023-04-09T09:04:44;9.18;;;7.90;;
19867;SDS011;10096;51.112;6.776;2023-04-09T09:07:14;8.55;;;7.65;;
19867;SDS011;10096;51.112;6.776;2023-04-09T09:09:52;9.13;;;6.90;;
19867;SDS011;10096;51.112;6.776;2023-04-09T09:12:30;8.70;;;7.78;;
19867;SDS011;10096;51.112;6.776;2023-04-09T09:15:02;8.98;;;8.00;;
19867;SDS011;10096;51.112;6.776;2023-04-09T09:17:30;8.05;;;7.25;;
19867;SDS011;10096;51.112;6.776;2023-04-09T09:19:57;8.02;;;7.22;;
19867;SDS011;10096;51.112;6.776;2023-04-09T09:22:25;7.57;;;6.78;;
19867;SDS011;10096;51.112;6.776;2023-04-09T09:24:53;6.80;;;5.95;;
19867;SDS011;10096;51.112;6.776;2023-04-09T09:27:30;7.90;;;7.10;;
19867;SDS011;10096;51.112;6.776;2023-04-09T09:30:00;7.18;;;6.47;;
19867;SDS011;10096;51.112;6.776;2023-04-09T09:32:32;6.68;;;5.95;;
19867;SDS011;10096;51.112;6.776;2023-04-09T09:35:00;7.38;;;6.68;;
19867;SDS011;10096;51.112;6.776;2023-04-09T09:37:30;6.75;;;5.93;;
19867;SDS011;10096;51.112;6.776;2023-04-09T09:39:58;6.43;;;5.38;;
19867;SDS011;10096;51.112;6.776;2023-04-09T09:53:11;7.57;;;6.72;;
19867;SDS011;10096;51.112;6.776;2023-04-09T09:55:43;6.88;;;6.18;;
19867;SDS011;10096;51.112;6.776;2023-04-09T09:58:15;6.57;;;5.50;;
19867;SDS011;10096;51.112;6.776;2023-04-09T10:00:45;6.88;;;6.18;;
19867;SDS011;10096;51.112;6.776;2023-04-09T10:03:13;6.82;;;6.00;;
19867;SDS011;10096;51.112;6.776;2023-04-09T10:05:45;5.85;;;5.25;;
19867;SDS011;10096;51.112;6.776;2023-04-09T10:08:16;7.05;;;6.35;;
19867;SDS011;10096;51.112;6.776;2023-04-09T10:10:43;6.75;;;6.10;;
19867;SDS011;10096;51.112;6.776;2023-04-09T10:13:15;6.65;;;6.03;;
19867;SDS011;10096;51.112;6.776;2023-04-09T10:15:47;8.82;;;5.75;;
19867;SDS011;10096;51.112;6.776;2023-04-09T10:18:14;7.13;;;5.93;;
19867;SDS011;10096;51.112;6.776;2023-04-09T10:20:45;5.82;;;5.25;;
19867;SDS011;10096;51.112;6.776;2023-04-09T10:23:20;5.95;;;5.35;;
19867;SDS011;10096;51.112;6.776;2023-04-09T10:25:56;7.03;;;6.38;;
19867;SDS011;10096;51.112;6.776;2023-04-09T10:28:23;6.07;;;5.47;;
19867;SDS011;10096;51.112;6.776;2023-04-09T10:30:50;6.68;;;5.97;;
19867;SDS011;10096;51.112;6.776;2023-04-09T10:33:21;7.20;;;6.50;;
19867;SDS011;10096;51.112;6.776;2023-04-09T10:35:50;7.18;;;6.47;;
19867;SDS011;10096;51.112;6.776;2023-04-09T10:38:20;6.32;;;5.68;;
19867;SDS011;10096;51.112;6.776;2023-04-09T10:41:00;6.50;;;5.90;;
19867;SDS011;10096;51.112;6.776;2023-04-09T10:43:33;9.45;;;6.20;;
19867;SDS011;10096;51.112;6.776;2023-04-09T10:46:03;7.05;;;6.45;;
19867;SDS011;10096;51.112;6.776;2023-04-09T10:48:31;6.18;;;5.57;;
19867;SDS011;10096;51.112;6.776;2023-04-09T10:51:01;7.00;;;6.30;;
19867;SDS011;10096;51.112;6.776;2023-04-09T10:53:32;6.43;;;5.82;;
19867;SDS011;10096;51.112;6.776;2023-04-09T10:55:58;7.80;;;6.97;;
19867;SDS011;10096;51.112;6.776;2023-04-09T10:58:26;7.40;;;6.70;;
19867;SDS011;10096;51.112;6.776;2023-04-09T11:00:53;7.55;;;6.75;;
19867;SDS011;10096;51.112;6.776;2023-04-09T11:03:21;7.63;;;6.90;;
19867;SDS011;10096;51.112;6.776;2023-04-09T11:05:51;6.68;;;6.03;;
19867;SDS011;10096;51.112;6.776;2023-04-09T11:08:21;7.10;;;6.30;;
19867;SDS011;10096;51.112;6.776;2023-04-09T11:10:50;7.07;;;6.38;;
19867;SDS011;10096;51.112;6.776;2023-04-09T11:13:20;8.40;;;7.22;;
19867;SDS011;10096;51.112;6.776;2023-04-09T11:15:47;6.95;;;6.28;;
19867;SDS011;10096;51.112;6.776;2023-04-09T11:18:15;7.30;;;6.55;;
19867;SDS011;10096;51.112;6.776;2023-04-09T11:20:45;7.65;;;6.55;;
19867;SDS011;10096;51.112;6.776;2023-04-09T11:23:12;8.23;;;7.43;;
19867;SDS011;10096;51.112;6.776;2023-04-09T11:25:40;6.28;;;5.68;;
19867;SDS011;10096;51.112;6.776;2023-04-09T11:28:09;7.40;;;6.60;;
19867;SDS011;10096;51.112;6.776;2023-04-09T11:30:36;7.65;;;6.85;;
19867;SDS011;10096;51.112;6.776;2023-04-09T11:33:03;7.63;;;6.88;;
19867;SDS011;10096;51.112;6.776;2023-04-09T11:35:33;7.88;;;7.07;;
19867;SDS011;10096;51.112;6.776;2023-04-09T11:38:04;7.60;;;6.90;;
19867;SDS011;10096;51.112;6.776;2023-04-09T11:40:32;7.63;;;6.30;;
19867;SDS011;10096;51.112;6.776;2023-04-09T11:42:59;7.38;;;6.53;;
19867;SDS011;10096;51.112;6.776;2023-04-09T11:45:29;7.30;;;6.60;;
19867;SDS011;10096;51.112;6.776;2023-04-09T11:47:56;7.68;;;6.70;;
19867;SDS011;10096;51.112;6.776;2023-04-09T11:50:23;7.88;;;7.07;;
19867;SDS011;10096;51.112;6.776;2023-04-09T11:52:51;8.70;;;7.85;;
19867;SDS011;10096;51.112;6.776;2023-04-09T11:55:24;8.30;;;7.30;;
19867;SDS011;10096;51.112;6.776;2023-04-09T11:57:53;8.15;;;7.30;;
19867;SDS011;10096;51.112;6.776;2023-04-09T12:00:24;7.93;;;7.00;;
19867;SDS011;10096;51.112;6.776;2023-04-09T12:02:59;8.15;;;7.35;;
19867;SDS011;10096;51.112;6.776;2023-04-09T12:05:37;8.98;;;8.07;;
19867;SDS011;10096;51.112;6.776;2023-04-09T12:08:06;9.23;;;8.30;;
19867;SDS011;10096;51.112;6.776;2023-04-09T12:10:35;8.65;;;7.80;;
19867;SDS011;10096;51.112;6.776;2023-04-09T12:13:05;8.02;;;7.22;;
19867;SDS011;10096;51.112;6.776;2023-04-09T12:15:36;9.00;;;8.10;;
19867;SDS011;10096;51.112;6.776;2023-04-09T12:18:08;9.73;;;8.73;;
19867;SDS011;10096;51.112;6.776;2023-04-09T12:20:36;10.05;;;9.05;;
19867;SDS011;10096;51.112;6.776;2023-04-09T12:23:05;8.90;;;8.00;;
19867;SDS011;10096;51.112;6.776;2023-04-09T12:25:34;8.40;;;7.22;;
19867;SDS011;10096;51.112;6.776;2023-04-09T12:28:02;9.77;;;7.80;;
19867;SDS011;10096;51.112;6.776;2023-04-09T12:30:30;7.13;;;6.43;;
19867;SDS011;10096;51.112;6.776;2023-04-09T12:32:57;8.05;;;7.10;;
19867;SDS011;10096;51.112;6.776;2023-04-09T12:35:26;7.20;;;6.50;;
19867;SDS011;10096;51.112;6.776;2023-04-09T12:37:53;8.23;;;7.13;;
19867;SDS011;10096;51.112;6.776;2023-04-09T12:40:21;8.38;;;7.47;;
19867;SDS011;10096;51.112;6.776;2023-04-09T12:42:48;9.07;;;8.20;;
19867;SDS011;10096;51.112;6.776;2023-04-09T12:45:16;8.00;;;7.03;;
19867;SDS011;10096;51.112;6.776;2023-04-09T12:47:43;7.63;;;6.82;;
19867;SDS011;10096;51.112;6.776;2023-04-09T12:50:11;8.18;;;7.38;;
19867;SDS011;10096;51.112;6.776;2023-04-09T12:52:42;8.13;;;7.40;;
19867;SDS011;10096;51.112;6.776;2023-04-09T12:55:10;7.60;;;6.82;;
19867;SDS011;10096;51.112;6.776;2023-04-09T12:57:38;7.88;;;7.07;;
19867;SDS011;10096;51.112;6.776;2023-04-09T13:00:09;6.85;;;6.15;;
19867;SDS011;10096;51.112;6.776;2023-04-09T13:02:38;8.15;;;7.38;;
19867;SDS011;10096;51.112;6.776;2023-04-09T13:05:05;8.00;;;6.63;;
19867;SDS011;10096;51.112;6.776;2023-04-09T13:07:32;8.43;;;7.63;;
19867;SDS011;10096;51.112;6.776;2023-04-09T13:10:01;7.90;;;7.10;;
19867;SDS011;10096;51.112;6.776;2023-04-09T13:12:28;6.90;;;6.20;;
19867;SDS011;10096;51.112;6.776;2023-04-09T13:14:56;8.98;;;8.07;;
19867;SDS011;10096;51.112;6.776;2023-04-09T13:17:24;8.20;;;7.40;;
19867;SDS011;10096;51.112;6.776;2023-04-09T13:19:52;8.48;;;7.68;;
19867;SDS011;10096;51.112;6.776;2023-04-09T13:22:19;7.80;;;7.00;;
19867;SDS011;10096;51.112;6.776;2023-04-09T13:24:46;8.55;;;7.28;;
19867;SDS011;10096;51.112;6.776;2023-04-09T13:27:14;6.95;;;6.25;;
19867;SDS011;10096;51.112;6.776;2023-04-09T13:29:42;7.15;;;6.45;;
19867;SDS011;10096;51.112;6.776;2023-04-09T13:32:09;6.95;;;6.25;;
19867;SDS011;10096;51.112;6.776;2023-04-09T13:34:37;7.07;;;6.40;;
19867;SDS011;10096;51.112;6.776;2023-04-09T13:37:05;7.93;;;7.13;;
19867;SDS011;10096;51.112;6.776;2023-04-09T13:39:32;7.25;;;6.55;;
19867;SDS011;10096;51.112;6.776;2023-04-09T13:41:59;8.18;;;6.88;;
19867;SDS011;10096;51.112;6.776;2023-04-09T13:44:29;7.35;;;6.15;;
19867;SDS011;10096;51.112;6.776;2023-04-09T13:46:56;6.57;;;5.97;;
19867;SDS011;10096;51.112;6.776;2023-04-09T13:49:23;6.80;;;6.20;;
19867;SDS011;10096;51.112;6.776;2023-04-09T13:51:51;7.82;;;6.35;;
19867;SDS011;10096;51.112;6.776;2023-04-09T13:54:18;6.97;;;6.30;;
19867;SDS011;10096;51.112;6.776;2023-04-09T13:56:44;7.10;;;6.38;;
19867;SDS011;10096;51.112;6.776;2023-04-09T13:59:12;8.05;;;7.00;;
19867;SDS011;10096;51.112;6.776;2023-04-09T14:01:40;8.00;;;6.65;;
19867;SDS011;10096;51.112;6.776;2023-04-09T14:04:07;7.00;;;6.30;;
19867;SDS011;10096;51.112;6.776;2023-04-09T14:06:35;7.72;;;6.18;;
19867;SDS011;10096;51.112;6.776;2023-04-09T14:09:01;7.15;;;6.45;;
19867;SDS011;10096;51.112;6.776;2023-04-09T14:11:28;7.13;;;6.22;;
19867;SDS011;10096;51.112;6.776;2023-04-09T14:13:55;8.35;;;7.45;;
19867;SDS011;10096;51.112;6.776;2023-04-09T14:16:22;7.68;;;6.88;;
19867;SDS011;10096;51.112;6.776;2023-04-09T14:18:53;7.30;;;6.60;;
19867;SDS011;10096;51.112;6.776;2023-04-09T14:21:20;9.02;;;8.10;;
19867;SDS011;10096;51.112;6.776;2023-04-09T14:23:47;7.63;;;6.90;;
19867;SDS011;10096;51.112;6.776;2023-04-09T14:26:14;8.35;;;7.20;;
19867;SDS011;10096;51.112;6.776;2023-04-09T14:28:41;9.20;;;8.23;;
19867;SDS011;10096;51.112;6.776;2023-04-09T14:31:08;8.63;;;7.82;;
19867;SDS011;10096;51.112;6.776;2023-04-09T14:33:35;9.23;;;8.30;;
19867;SDS011;10096;51.112;6.776;2023-04-09T14:36:05;8.20;;;7.40;;
19867;SDS011;10096;51.112;6.776;2023-04-09T14:38:33;8.55;;;7.65;;
19867;SDS011;10096;51.112;6.776;2023-04-09T14:41:00;7.60;;;6.90;;
19867;SDS011;10096;51.112;6.776;2023-04-09T14:43:26;7.65;;;6.90;;
19867;SDS011;10096;51.112;6.776;2023-04-09T14:45:54;9.57;;;8.60;;
19867;SDS011;10096;51.112;6.776;2023-04-09T14:48:21;7.15;;;6.45;;
19867;SDS011;10096;51.112;6.776;2023-04-09T14:50:48;7.70;;;6.88;;